Terminal Aerodrome Forecast
Issued by NWS

Home | Current Version | Previous Version | Text Only | Print | Product List | Glossary On
Versions: 1 2 3 4 5 6 7 8 9 10 11 12 13 14 15
000
FTUS45 KTFX 182337
TAFHVR
TAF
KHVR 182337Z 1900/1924 31011G21KT P6SM VCSH SCT050 BKN080
     FM190200 29008KT P6SM SCT080
     FM191800 32011KT P6SM SCT050 BKN080=

USA.gov is the U.S. government's official web portal to all federal, state and local government web resources and services.